Time;durP1;ratioP1;P1;durP2;ratioP2;P2;SDS_P1;SDS_P2;PMS_P1;PMS_P2;Temp;Humidity;BMP_temperature;BMP_pressure;BME280_temperature;BME280_humidity;BME280_pressure;Samples;Min_cycle;Max_cycle;Signal;HPM_P1;HPM_P2
2022/08/01 00:00:10;;;;;;;4.07;3.05;;;;;;;;;;4976076;28;20058;-71
2022/08/01 00:02:39;;;;;;;4.68;3.30;;;;;;;;;;4975931;28;20501;-72
2022/08/01 00:05:08;;;;;;;4.40;2.92;;;;;;;;;;4975913;28;20086;-71
2022/08/01 00:07:35;;;;;;;5.57;3.30;;;;;;;;;;4974686;28;20066;-72
2022/08/01 00:10:02;;;;;;;4.28;2.90;;;;;;;;;;4975879;28;20050;-72
2022/08/01 00:12:28;;;;;;;4.03;2.88;;;;;;;;;;4975773;28;20023;-72
2022/08/01 00:14:54;;;;;;;4.38;2.90;;;;;;;;;;4975868;28;20603;-72
2022/08/01 00:17:20;;;;;;;4.78;3.13;;;;;;;;;;4975917;28;20432;-72
2022/08/01 00:19:46;;;;;;;3.30;2.95;;;;;;;;;;4975706;28;20106;-73
2022/08/01 00:22:12;;;;;;;4.07;3.08;;;;;;;;;;4975554;28;20485;-72
2022/08/01 00:24:38;;;;;;;3.97;2.90;;;;;;;;;;4976000;28;20066;-72
2022/08/01 00:27:04;;;;;;;4.80;2.83;;;;;;;;;;4988375;28;20058;-73
2022/08/01 00:29:30;;;;;;;6.00;3.70;;;;;;;;;;4987941;28;20031;-73
2022/08/01 00:31:56;;;;;;;3.80;2.90;;;;;;;;;;4994777;28;20362;-72
2022/08/01 00:34:22;;;;;;;5.85;3.08;;;;;;;;;;4994698;28;20029;-72
2022/08/01 00:36:48;;;;;;;3.47;2.80;;;;;;;;;;4994597;28;20027;-72
2022/08/01 00:39:14;;;;;;;4.50;3.30;;;;;;;;;;4994768;28;20035;-73
2022/08/01 00:41:40;;;;;;;3.03;2.72;;;;;;;;;;4994680;28;20034;-73
2022/08/01 00:44:07;;;;;;;4.32;3.20;;;;;;;;;;4977237;28;20061;-72
2022/08/01 00:46:33;;;;;;;5.22;3.10;;;;;;;;;;4994644;28;20041;-73
2022/08/01 00:49:00;;;;;;;6.80;3.40;;;;;;;;;;4989341;28;20054;-73
2022/08/01 00:51:27;;;;;;;4.45;3.05;;;;;;;;;;4985892;28;20079;-72
2022/08/01 00:53:53;;;;;;;5.63;3.40;;;;;;;;;;4994467;28;20094;-72
2022/08/01 00:56:21;;;;;;;5.40;3.10;;;;;;;;;;4994789;28;20036;-72
2022/08/01 00:58:47;;;;;;;6.13;3.33;;;;;;;;;;4994390;28;20030;-73
2022/08/01 01:01:14;;;;;;;3.25;2.85;;;;;;;;;;4994568;28;20046;-71
2022/08/01 01:03:43;;;;;;;5.05;3.35;;;;;;;;;;4980671;28;20030;-72
2022/08/01 01:06:28;;;;;;;4.35;3.33;;;;;;;;;;4976290;28;20034;-71
2022/08/01 01:09:01;;;;;;;3.95;2.92;;;;;;;;;;4994361;28;20073;-71
2022/08/01 01:11:35;;;;;;;8.65;3.65;;;;;;;;;;4994415;28;20018;-71
2022/08/01 01:14:04;;;;;;;3.95;3.40;;;;;;;;;;4994013;28;20424;-71
2022/08/01 01:16:31;;;;;;;3.30;2.72;;;;;;;;;;4994199;28;20104;-71
2022/08/01 01:19:09;;;;;;;3.78;3.00;;;;;;;;;;4976447;28;20026;-72
2022/08/01 01:21:41;;;;;;;5.30;2.85;;;;;;;;;;4993755;28;20030;-72
2022/08/01 01:24:21;;;;;;;4.20;3.15;;;;;;;;;;4980092;28;20023;-71
2022/08/01 01:26:53;;;;;;;5.28;3.20;;;;;;;;;;4989778;28;20496;-71
2022/08/01 01:29:28;;;;;;;4.63;3.20;;;;;;;;;;4985257;28;20042;-71
2022/08/01 01:31:58;;;;;;;4.70;3.00;;;;;;;;;;4993790;28;20022;-71
2022/08/01 01:34:24;;;;;;;4.72;2.85;;;;;;;;;;4993656;28;20026;-72
2022/08/01 01:36:52;;;;;;;6.75;3.35;;;;;;;;;;4993722;28;20018;-72
2022/08/01 01:39:18;;;;;;;3.88;3.40;;;;;;;;;;4993695;28;20030;-72
2022/08/01 01:41:45;;;;;;;4.25;3.53;;;;;;;;;;4993390;28;20018;-72
2022/08/01 01:44:12;;;;;;;4.60;3.70;;;;;;;;;;4993683;28;20023;-72
2022/08/01 01:46:40;;;;;;;4.60;3.42;;;;;;;;;;4993613;28;20153;-71
2022/08/01 01:49:09;;;;;;;3.50;3.20;;;;;;;;;;4993634;28;20034;-73
2022/08/01 01:51:36;;;;;;;4.97;3.78;;;;;;;;;;4981167;28;20030;-73
2022/08/01 01:54:03;;;;;;;4.00;3.60;;;;;;;;;;4992204;28;20380;-72
2022/08/01 01:56:29;;;;;;;7.65;4.78;;;;;;;;;;4993239;28;20042;-73
2022/08/01 01:58:57;;;;;;;13.02;5.82;;;;;;;;;;4993055;28;20097;-70
2022/08/01 02:01:25;;;;;;;8.52;5.18;;;;;;;;;;4993357;28;20025;-72
2022/08/01 02:03:53;;;;;;;6.32;4.22;;;;;;;;;;4993294;28;20034;-73
2022/08/01 02:06:21;;;;;;;5.65;3.45;;;;;;;;;;4993227;28;20010;-73
2022/08/01 02:08:47;;;;;;;4.97;3.40;;;;;;;;;;4993248;28;20034;-73
2022/08/01 02:11:23;;;;;;;4.85;3.38;;;;;;;;;;4993213;28;20015;-73
2022/08/01 02:13:59;;;;;;;5.75;3.30;;;;;;;;;;4993544;28;20026;-73
2022/08/01 02:16:28;;;;;;;4.65;3.42;;;;;;;;;;4951085;28;20034;-73
2022/08/01 02:18:54;;;;;;;3.80;3.08;;;;;;;;;;4993365;28;20022;-73
2022/08/01 02:21:24;;;;;;;5.55;3.50;;;;;;;;;;4993338;28;20408;-72
2022/08/01 02:23:51;;;;;;;4.25;3.50;;;;;;;;;;4993171;28;20034;-71
2022/08/01 02:26:18;;;;;;;4.97;3.00;;;;;;;;;;4974712;28;20128;-73
2022/08/01 02:28:53;;;;;;;4.28;3.53;;;;;;;;;;4980323;28;20088;-73
2022/08/01 02:31:21;;;;;;;5.25;3.60;;;;;;;;;;4996303;28;20026;-73
2022/08/01 02:33:51;;;;;;;4.53;3.90;;;;;;;;;;4969974;28;20370;-72
2022/08/01 02:36:17;;;;;;;5.25;3.22;;;;;;;;;;4985002;28;20019;-73
2022/08/01 02:38:45;;;;;;;4.95;3.63;;;;;;;;;;4995457;28;20160;-73
2022/08/01 02:41:14;;;;;;;6.07;3.40;;;;;;;;;;4997134;28;20069;-73
2022/08/01 02:43:43;;;;;;;8.70;3.90;;;;;;;;;;4983136;28;20054;-73
2022/08/01 02:46:09;;;;;;;6.22;3.30;;;;;;;;;;4996870;28;20061;-73
2022/08/01 02:48:37;;;;;;;4.18;3.60;;;;;;;;;;4996558;28;20034;-72
2022/08/01 02:51:03;;;;;;;4.47;3.13;;;;;;;;;;4979171;28;20046;-72
2022/08/01 02:53:34;;;;;;;5.68;3.22;;;;;;;;;;4996578;28;20428;-73
2022/08/01 02:56:01;;;;;;;5.25;3.20;;;;;;;;;;4996590;28;20117;-72
2022/08/01 02:58:27;;;;;;;6.00;3.47;;;;;;;;;;4996702;28;20022;-73
2022/08/01 03:00:54;;;;;;;6.05;3.70;;;;;;;;;;4991741;28;20027;-74
2022/08/01 03:03:20;;;;;;;6.22;3.40;;;;;;;;;;4988216;28;20069;-72
2022/08/01 03:05:48;;;;;;;7.22;4.28;;;;;;;;;;4996261;28;20069;-72
2022/08/01 03:08:15;;;;;;;8.15;4.10;;;;;;;;;;4996567;28;20034;-72
2022/08/01 03:10:43;;;;;;;5.05;3.85;;;;;;;;;;4994618;28;20023;-73
2022/08/01 03:13:10;;;;;;;6.43;3.40;;;;;;;;;;4984962;28;20125;-73
2022/08/01 03:15:38;;;;;;;5.45;4.53;;;;;;;;;;4996416;28;20428;-73
2022/08/01 03:18:27;;;;;;;5.65;4.13;;;;;;;;;;4972661;28;20495;-73
2022/08/01 03:20:54;;;;;;;5.10;4.00;;;;;;;;;;4978383;28;20023;-72
2022/08/01 03:23:21;;;;;;;7.60;3.90;;;;;;;;;;4996165;28;20481;-72
2022/08/01 03:25:49;;;;;;;4.30;3.90;;;;;;;;;;4995835;28;20054;-72
2022/08/01 03:28:16;;;;;;;5.30;3.60;;;;;;;;;;4982223;28;20031;-72
2022/08/01 03:30:43;;;;;;;5.22;3.78;;;;;;;;;;4996140;28;20057;-72
2022/08/01 03:33:10;;;;;;;4.28;3.65;;;;;;;;;;4995747;28;20037;-72
2022/08/01 03:35:50;;;;;;;4.63;3.50;;;;;;;;;;4995916;28;20049;-72
2022/08/01 03:38:19;;;;;;;6.22;3.67;;;;;;;;;;4995821;28;20101;-72
2022/08/01 03:40:51;;;;;;;9.57;5.78;;;;;;;;;;4977891;28;20089;-72
2022/08/01 03:43:17;;;;;;;;;;;;;;;;;;4996170;28;20480;-71
2022/08/01 03:45:46;;;;;;;4.68;3.60;;;;;;;;;;4995703;28;19960;-71
2022/08/01 03:48:14;;;;;;;7.25;3.40;;;;;;;;;;4995653;28;20035;-71
2022/08/01 03:50:43;;;;;;;3.88;3.47;;;;;;;;;;4995712;28;20050;-72
2022/08/01 03:53:10;;;;;;;12.43;4.10;;;;;;;;;;4995731;28;20428;-71
2022/08/01 03:55:38;;;;;;;7.93;4.50;;;;;;;;;;4992185;28;20041;-71
2022/08/01 03:58:04;;;;;;;5.93;4.10;;;;;;;;;;4985929;28;20562;-71
2022/08/01 04:00:31;;;;;;;5.15;3.65;;;;;;;;;;4995302;28;20034;-71
2022/08/01 04:02:57;;;;;;;6.32;4.57;;;;;;;;;;4995444;28;20105;-70
2022/08/01 04:05:24;;;;;;;14.90;4.78;;;;;;;;;;4995204;28;20019;-71
2022/08/01 04:07:57;;;;;;;13.35;3.95;;;;;;;;;;4995412;28;20038;-71
2022/08/01 04:10:23;;;;;;;10.85;4.13;;;;;;;;;;4995448;28;20023;-72
2022/08/01 04:12:50;;;;;;;9.50;4.35;;;;;;;;;;4995308;28;20037;-71
2022/08/01 04:15:16;;;;;;;6.90;4.55;;;;;;;;;;4995199;28;20022;-71
2022/08/01 04:17:42;;;;;;;7.47;4.28;;;;;;;;;;4995199;28;20022;-72
2022/08/01 04:20:08;;;;;;;5.65;4.00;;;;;;;;;;4995205;28;20500;-72
2022/08/01 04:22:35;;;;;;;6.80;3.97;;;;;;;;;;4994918;28;20034;-72
2022/08/01 04:25:05;;;;;;;6.85;3.95;;;;;;;;;;4994899;28;20038;-72
2022/08/01 04:27:33;;;;;;;7.65;4.70;;;;;;;;;;4984796;28;20068;-72
2022/08/01 04:30:00;;;;;;;5.63;4.30;;;;;;;;;;4991626;28;20425;-71
2022/08/01 04:32:28;;;;;;;9.77;4.78;;;;;;;;;;4994901;28;20026;-71
2022/08/01 04:34:55;;;;;;;13.27;4.93;;;;;;;;;;4994837;28;20458;-71
2022/08/01 04:37:25;;;;;;;11.00;4.85;;;;;;;;;;4994547;28;20459;-71
2022/08/01 04:39:52;;;;;;;10.48;5.03;;;;;;;;;;4981038;28;20023;-71
2022/08/01 04:42:19;;;;;;;6.20;4.60;;;;;;;;;;4975230;28;20019;-71
2022/08/01 04:44:45;;;;;;;5.43;4.28;;;;;;;;;;4987061;28;20029;-71
2022/08/01 04:47:11;;;;;;;7.32;4.70;;;;;;;;;;4963169;28;20042;-71
2022/08/01 04:49:38;;;;;;;12.70;5.35;;;;;;;;;;4966906;28;20077;-71
2022/08/01 04:52:06;;;;;;;9.32;5.15;;;;;;;;;;4988344;28;20118;-73
2022/08/01 04:54:33;;;;;;;6.70;5.28;;;;;;;;;;4983700;28;20358;-71
2022/08/01 04:57:00;;;;;;;8.07;5.35;;;;;;;;;;4979558;28;20030;-71
2022/08/01 04:59:41;;;;;;;9.07;5.80;;;;;;;;;;4974727;28;20027;-72
2022/08/01 05:02:07;;;;;;;;;;;;;;;;;;4975292;28;20027;-72
2022/08/01 05:04:33;;;;;;;16.10;5.68;;;;;;;;;;4974780;28;19912;-72
2022/08/01 05:07:00;;;;;;;7.88;5.35;;;;;;;;;;4987550;28;20022;-72
2022/08/01 05:09:26;;;;;;;7.97;5.07;;;;;;;;;;4980505;28;20030;-73
2022/08/01 05:11:52;;;;;;;8.77;4.80;;;;;;;;;;4994319;28;20412;-72
2022/08/01 05:14:18;;;;;;;10.43;5.15;;;;;;;;;;4993956;28;20023;-72
2022/08/01 05:16:45;;;;;;;7.88;4.43;;;;;;;;;;4994189;28;20081;-72
2022/08/01 05:19:11;;;;;;;5.88;4.38;;;;;;;;;;4994074;28;20040;-72
2022/08/01 05:21:38;;;;;;;6.13;4.30;;;;;;;;;;4993940;28;20022;-72
2022/08/01 05:24:05;;;;;;;10.20;4.68;;;;;;;;;;4993979;28;20504;-72
2022/08/01 05:26:31;;;;;;;5.95;4.35;;;;;;;;;;4991434;28;20065;-72
2022/08/01 05:28:57;;;;;;;7.00;5.00;;;;;;;;;;4982363;28;20038;-72
2022/08/01 05:31:23;;;;;;;11.57;6.88;;;;;;;;;;4993717;28;20382;-71
2022/08/01 05:33:49;;;;;;;6.43;4.15;;;;;;;;;;4993885;28;20113;-71
2022/08/01 05:36:15;;;;;;;6.88;5.03;;;;;;;;;;4993670;28;20084;-72
2022/08/01 05:38:41;;;;;;;11.20;5.13;;;;;;;;;;4993648;28;20485;-71
2022/08/01 05:41:07;;;;;;;14.32;11.30;;;;;;;;;;4993714;28;20026;-72
2022/08/01 05:43:33;;;;;;;6.63;5.07;;;;;;;;;;4993348;28;20104;-72
2022/08/01 05:46:00;;;;;;;5.13;4.15;;;;;;;;;;4993659;28;20056;-72
2022/08/01 05:48:26;;;;;;;6.03;4.13;;;;;;;;;;4993399;28;20027;-72
2022/08/01 05:50:53;;;;;;;8.23;4.40;;;;;;;;;;4993526;28;20029;-71
2022/08/01 05:53:19;;;;;;;6.18;4.28;;;;;;;;;;4980817;28;20393;-72
2022/08/01 05:55:45;;;;;;;5.10;4.13;;;;;;;;;;4992769;28;20034;-71
2022/08/01 05:58:11;;;;;;;6.88;4.50;;;;;;;;;;4993231;28;20037;-72
2022/08/01 06:00:38;;;;;;;11.23;5.10;;;;;;;;;;4993487;28;20461;-71
2022/08/01 06:03:04;;;;;;;7.88;5.25;;;;;;;;;;4993367;28;20030;-71
2022/08/01 06:05:30;;;;;;;9.55;4.80;;;;;;;;;;4992330;28;20052;-71
2022/08/01 06:07:57;;;;;;;11.20;4.30;;;;;;;;;;4993061;28;20034;-71
2022/08/01 06:10:24;;;;;;;6.28;4.50;;;;;;;;;;4993301;28;20030;-71
2022/08/01 06:12:50;;;;;;;9.05;4.75;;;;;;;;;;4993657;28;20026;-71
2022/08/01 06:15:16;;;;;;;6.63;3.95;;;;;;;;;;4993518;28;20362;-72
2022/08/01 06:17:42;;;;;;;9.93;7.65;;;;;;;;;;4993154;28;20057;-72
2022/08/01 06:20:08;;;;;;;13.88;5.85;;;;;;;;;;4993527;28;20022;-71
2022/08/01 06:22:34;;;;;;;7.75;4.80;;;;;;;;;;4992986;28;20026;-71
2022/08/01 06:25:01;;;;;;;7.85;4.22;;;;;;;;;;4993089;28;20125;-71
2022/08/01 06:27:27;;;;;;;6.30;4.43;;;;;;;;;;4983444;28;20088;-71
2022/08/01 06:29:53;;;;;;;9.07;6.28;;;;;;;;;;4988968;28;20022;-72
2022/08/01 06:32:20;;;;;;;9.38;6.00;;;;;;;;;;4993341;28;20459;-72
2022/08/01 06:34:46;;;;;;;5.93;4.90;;;;;;;;;;4992981;28;20018;-72
2022/08/01 06:37:13;;;;;;;7.28;4.43;;;;;;;;;;4987416;28;20022;-72
2022/08/01 06:39:39;;;;;;;6.47;5.05;;;;;;;;;;4985671;28;20106;-72
2022/08/01 06:42:05;;;;;;;6.43;4.47;;;;;;;;;;4993054;28;20033;-72
2022/08/01 06:44:31;;;;;;;7.43;4.88;;;;;;;;;;4993049;28;20091;-73
2022/08/01 06:47:00;;;;;;;8.50;4.22;;;;;;;;;;4992990;28;20027;-72
2022/08/01 06:49:27;;;;;;;7.85;5.30;;;;;;;;;;4984421;28;20169;-73
2022/08/01 06:51:53;;;;;;;9.52;5.35;;;;;;;;;;4987917;28;20026;-73
2022/08/01 06:54:19;;;;;;;6.75;4.50;;;;;;;;;;4992792;28;20088;-72
2022/08/01 06:56:45;;;;;;;8.02;4.32;;;;;;;;;;4993008;28;20026;-71
2022/08/01 06:59:11;;;;;;;7.85;4.97;;;;;;;;;;4987873;28;20019;-72
2022/08/01 07:01:37;;;;;;;6.88;4.22;;;;;;;;;;4984337;28;20121;-72
2022/08/01 07:04:03;;;;;;;5.80;4.07;;;;;;;;;;4992783;28;20018;-73
2022/08/01 07:06:29;;;;;;;7.35;3.97;;;;;;;;;;4983794;28;20073;-73
2022/08/01 07:08:56;;;;;;;5.40;3.88;;;;;;;;;;4986941;28;20045;-74
2022/08/01 07:11:23;;;;;;;6.28;4.32;;;;;;;;;;4980614;28;20461;-73
2022/08/01 07:13:49;;;;;;;13.38;4.32;;;;;;;;;;4992649;28;20105;-73
2022/08/01 07:16:16;;;;;;;7.10;5.15;;;;;;;;;;4994094;28;20015;-73
2022/08/01 07:18:42;;;;;;;7.93;3.80;;;;;;;;;;4996423;28;20105;-73
2022/08/01 07:21:08;;;;;;;5.32;4.38;;;;;;;;;;4996126;28;20027;-74
2022/08/01 07:23:35;;;;;;;5.93;4.28;;;;;;;;;;4996074;28;20046;-73
2022/08/01 07:26:01;;;;;;;14.68;4.88;;;;;;;;;;4995797;28;20145;-73
2022/08/01 07:28:27;;;;;;;8.38;5.03;;;;;;;;;;4982107;28;20396;-72
2022/08/01 07:30:54;;;;;;;8.40;4.30;;;;;;;;;;4996186;28;20373;-72
2022/08/01 07:33:20;;;;;;;8.32;4.45;;;;;;;;;;4995686;28;20023;-72
2022/08/01 07:35:46;;;;;;;4.93;4.32;;;;;;;;;;4996280;28;20054;-72
2022/08/01 07:38:12;;;;;;;6.00;4.38;;;;;;;;;;4995591;28;20028;-72
2022/08/01 07:40:38;;;;;;;5.15;4.18;;;;;;;;;;4995712;28;20453;-72
2022/08/01 07:43:04;;;;;;;5.70;4.40;;;;;;;;;;4995629;28;20057;-72
2022/08/01 07:45:31;;;;;;;6.28;5.38;;;;;;;;;;4991291;28;20019;-72
2022/08/01 07:47:57;;;;;;;6.15;4.38;;;;;;;;;;4986499;28;20117;-72
2022/08/01 07:50:23;;;;;;;6.72;5.10;;;;;;;;;;4995493;28;20019;-72
2022/08/01 07:52:49;;;;;;;6.13;3.80;;;;;;;;;;4995721;28;20031;-72
2022/08/01 07:55:15;;;;;;;7.65;4.05;;;;;;;;;;4994991;28;20373;-72
2022/08/01 07:57:41;;;;;;;8.82;6.10;;;;;;;;;;4982870;28;20031;-73
2022/08/01 08:00:08;;;;;;;6.90;5.30;;;;;;;;;;4995600;28;20076;-72
2022/08/01 08:02:35;;;;;;;7.78;6.15;;;;;;;;;;4995321;28;20030;-72
2022/08/01 08:05:01;;;;;;;8.02;4.88;;;;;;;;;;4995658;28;20035;-72
2022/08/01 08:07:27;;;;;;;4.53;4.03;;;;;;;;;;4995185;28;20172;-72
2022/08/01 08:09:53;;;;;;;6.90;4.10;;;;;;;;;;4995348;28;20023;-72
2022/08/01 08:12:19;;;;;;;6.03;3.95;;;;;;;;;;4995300;28;20034;-73
2022/08/01 08:14:45;;;;;;;5.30;3.92;;;;;;;;;;4995179;28;20026;-72
2022/08/01 08:17:11;;;;;;;5.80;4.28;;;;;;;;;;4982330;28;20031;-73
2022/08/01 08:19:38;;;;;;;5.93;3.95;;;;;;;;;;4994814;28;20495;-73
2022/08/01 08:22:05;;;;;;;10.73;6.38;;;;;;;;;;4995053;28;20099;-72
2022/08/01 08:24:31;;;;;;;5.43;4.35;;;;;;;;;;4994761;28;20085;-74
2022/08/01 08:26:59;;;;;;;5.95;4.15;;;;;;;;;;4988449;28;20047;-73
2022/08/01 08:29:26;;;;;;;5.05;4.25;;;;;;;;;;4986530;28;20511;-74
2022/08/01 08:31:55;;;;;;;4.03;3.70;;;;;;;;;;4994933;28;20372;-72
2022/08/01 08:34:21;;;;;;;5.03;4.10;;;;;;;;;;4994712;28;20065;-73
2022/08/01 08:36:47;;;;;;;4.55;3.95;;;;;;;;;;4992292;28;20105;-73
2022/08/01 08:39:13;;;;;;;5.03;3.90;;;;;;;;;;4983805;28;20109;-73
2022/08/01 08:41:39;;;;;;;8.68;6.97;;;;;;;;;;4994486;28;20471;-73
2022/08/01 08:44:06;;;;;;;5.47;4.07;;;;;;;;;;4994702;28;20023;-72
2022/08/01 08:46:33;;;;;;;5.70;3.90;;;;;;;;;;4994635;28;20429;-71
2022/08/01 08:49:00;;;;;;;5.68;4.20;;;;;;;;;;4994401;28;20121;-72
2022/08/01 08:51:27;;;;;;;5.60;4.53;;;;;;;;;;4994493;28;20025;-74
2022/08/01 08:53:55;;;;;;;6.25;3.70;;;;;;;;;;4994221;28;20053;-74
2022/08/01 08:56:21;;;;;;;4.43;3.97;;;;;;;;;;4994357;28;20035;-73
2022/08/01 08:58:48;;;;;;;9.02;4.32;;;;;;;;;;4994675;28;20026;-73
2022/08/01 09:01:14;;;;;;;8.55;3.78;;;;;;;;;;4994551;28;20104;-73
2022/08/01 09:03:41;;;;;;;8.38;4.38;;;;;;;;;;4994245;28;20030;-73
2022/08/01 09:06:07;;;;;;;8.27;4.00;;;;;;;;;;4967408;28;20468;-73
2022/08/01 09:08:33;;;;;;;3.83;3.45;;;;;;;;;;4994006;28;20034;-73
2022/08/01 09:10:59;;;;;;;6.43;3.70;;;;;;;;;;4993917;28;20109;-72
2022/08/01 09:13:25;;;;;;;6.78;4.00;;;;;;;;;;4994086;28;20065;-73
2022/08/01 09:15:56;;;;;;;7.13;3.80;;;;;;;;;;4994200;28;20376;-73
2022/08/01 09:18:44;;;;;;;5.82;3.58;;;;;;;;;;4994281;28;20040;-73
2022/08/01 09:21:18;;;;;;;7.97;4.40;;;;;;;;;;4989877;28;20018;-74
2022/08/01 09:23:45;;;;;;;8.00;4.18;;;;;;;;;;4985460;28;20073;-74
2022/08/01 09:26:22;;;;;;;5.13;4.00;;;;;;;;;;4993424;28;20468;-72
2022/08/01 09:28:49;;;;;;;4.95;3.72;;;;;;;;;;4968754;28;20045;-74
2022/08/01 09:31:16;;;;;;;4.40;3.97;;;;;;;;;;4993736;28;20113;-72
2022/08/01 09:33:54;;;;;;;6.93;4.10;;;;;;;;;;4993702;28;20026;-74
2022/08/01 09:36:23;;;;;;;4.65;3.92;;;;;;;;;;4993659;28;20058;-71
2022/08/01 09:38:49;;;;;;;5.57;3.78;;;;;;;;;;4980172;28;20027;-72
2022/08/01 09:41:15;;;;;;;7.43;5.00;;;;;;;;;;4993676;28;20029;-72
2022/08/01 09:43:47;;;;;;;4.15;3.50;;;;;;;;;;4993614;28;20037;-72
2022/08/01 09:46:14;;;;;;;5.13;3.67;;;;;;;;;;4993681;28;20385;-72
2022/08/01 09:48:54;;;;;;;6.60;4.65;;;;;;;;;;4993385;28;20084;-74
2022/08/01 09:51:28;;;;;;;6.05;3.88;;;;;;;;;;4993484;28;20018;-74
2022/08/01 09:53:55;;;;;;;4.35;3.60;;;;;;;;;;4993282;28;20109;-73
2022/08/01 09:56:22;;;;;;;6.07;3.95;;;;;;;;;;4993560;28;20492;-74
2022/08/01 10:31:53;;;;;;;4.95;4.07;;;;;;;;;;5113841;27;20376;-74
2022/08/01 10:34:20;;;;;;;7.03;4.60;;;;;;;;;;5110518;28;20047;-74
2022/08/01 10:36:46;;;;;;;6.65;4.20;;;;;;;;;;5110149;28;20095;-73
2022/08/01 10:39:13;;;;;;;8.10;6.18;;;;;;;;;;5110523;28;20065;-73
2022/08/01 10:41:39;;;;;;;4.30;3.90;;;;;;;;;;5108871;28;20035;-73
2022/08/01 10:44:09;;;;;;;5.78;4.10;;;;;;;;;;5110280;28;20012;-73
2022/08/01 10:46:37;;;;;;;5.63;4.78;;;;;;;;;;5109141;28;20063;-73
2022/08/01 10:49:07;;;;;;;6.65;4.25;;;;;;;;;;5110145;28;20028;-74
2022/08/01 10:51:37;;;;;;;7.43;3.90;;;;;;;;;;5110172;28;20028;-74
2022/08/01 10:54:05;;;;;;;7.05;3.60;;;;;;;;;;5110449;28;20110;-74
2022/08/01 10:56:48;;;;;;;6.00;4.60;;;;;;;;;;5109116;28;20036;-74
2022/08/01 10:59:21;;;;;;;7.40;4.70;;;;;;;;;;5108434;28;20088;-73
2022/08/01 11:02:05;;;;;;;6.30;4.07;;;;;;;;;;5109978;28;20102;-74
2022/08/01 11:04:34;;;;;;;5.30;4.05;;;;;;;;;;5108886;28;20031;-74
2022/08/01 11:07:07;;;;;;;4.38;3.70;;;;;;;;;;5108489;28;20027;-74
2022/08/01 11:09:41;;;;;;;8.50;4.20;;;;;;;;;;5109885;28;20028;-74
2022/08/01 11:12:17;;;;;;;4.95;3.83;;;;;;;;;;5109749;28;20027;-74
2022/08/01 11:15:01;;;;;;;5.53;3.72;;;;;;;;;;5109587;28;20386;-74
2022/08/01 11:17:32;;;;;;;5.13;3.78;;;;;;;;;;5108226;28;20027;-74
2022/08/01 11:20:09;;;;;;;4.93;3.65;;;;;;;;;;5108130;28;20032;-74
2022/08/01 11:22:53;;;;;;;9.02;4.72;;;;;;;;;;5109674;28;20023;-73
2022/08/01 11:25:20;;;;;;;8.48;4.50;;;;;;;;;;5095891;28;20103;-74
2022/08/01 11:27:46;;;;;;;5.43;3.97;;;;;;;;;;5109309;28;20047;-74
2022/08/01 11:30:12;;;;;;;4.50;4.05;;;;;;;;;;5108116;28;20452;-74
2022/08/01 11:32:48;;;;;;;7.25;4.53;;;;;;;;;;5096959;28;20051;-74
2022/08/01 11:35:15;;;;;;;7.57;4.05;;;;;;;;;;5095945;28;20099;-74
2022/08/01 11:37:41;;;;;;;4.38;3.25;;;;;;;;;;5096279;28;20020;-75
2022/08/01 11:40:16;;;;;;;9.80;4.65;;;;;;;;;;5093027;28;20077;-73
2022/08/01 11:42:42;;;;;;;5.38;3.50;;;;;;;;;;5085439;28;20016;-74
2022/08/01 11:45:11;;;;;;;5.70;3.78;;;;;;;;;;5095562;28;20073;-73
2022/08/01 11:47:45;;;;;;;5.63;4.13;;;;;;;;;;5095587;28;20098;-73
2022/08/01 11:50:29;;;;;;;4.57;3.83;;;;;;;;;;5095299;28;20114;-73
2022/08/01 11:52:59;;;;;;;6.15;3.67;;;;;;;;;;5095741;28;20031;-73
2022/08/01 11:55:26;;;;;;;10.10;4.28;;;;;;;;;;5095284;28;20462;-74
2022/08/01 11:57:59;;;;;;;6.57;3.75;;;;;;;;;;5094064;28;20478;-74
2022/08/01 12:00:25;;;;;;;6.47;3.97;;;;;;;;;;5095417;28;20077;-73
2022/08/01 12:03:02;;;;;;;7.43;4.40;;;;;;;;;;5095380;28;20028;-74
2022/08/01 12:05:29;;;;;;;6.32;5.22;;;;;;;;;;5093846;28;20028;-73
2022/08/01 12:07:56;;;;;;;9.60;4.35;;;;;;;;;;5093964;28;20428;-73
2022/08/01 12:10:27;;;;;;;8.27;4.07;;;;;;;;;;5095017;28;20498;-73
2022/08/01 12:12:53;;;;;;;8.25;3.78;;;;;;;;;;5093753;28;20489;-73
2022/08/01 12:15:20;;;;;;;9.52;3.75;;;;;;;;;;5094977;28;20024;-73
2022/08/01 12:17:48;;;;;;;5.90;4.10;;;;;;;;;;5094778;28;20020;-73
2022/08/01 12:20:16;;;;;;;7.65;3.88;;;;;;;;;;5094515;28;20032;-72
2022/08/01 12:22:43;;;;;;;6.32;4.00;;;;;;;;;;5094740;28;20027;-73
2022/08/01 12:25:10;;;;;;;6.72;3.65;;;;;;;;;;5095204;28;20063;-73
2022/08/01 12:27:37;;;;;;;5.65;3.80;;;;;;;;;;5094634;28;20040;-73
2022/08/01 12:30:06;;;;;;;5.57;3.42;;;;;;;;;;5094396;28;20052;-73
2022/08/01 12:32:35;;;;;;;3.75;3.08;;;;;;;;;;5095029;28;20035;-73
2022/08/01 12:35:24;;;;;;;8.20;4.22;;;;;;;;;;5094532;28;20113;-73
2022/08/01 12:37:54;;;;;;;4.75;3.50;;;;;;;;;;5072280;28;20032;-73
2022/08/01 12:40:22;;;;;;;6.50;3.70;;;;;;;;;;5072099;28;20526;-73
2022/08/01 12:42:50;;;;;;;5.45;3.88;;;;;;;;;;5071253;28;20265;-73
2022/08/01 12:45:17;;;;;;;4.57;3.78;;;;;;;;;;5055022;28;20020;-74
2022/08/01 12:47:44;;;;;;;4.25;3.53;;;;;;;;;;5071910;28;20107;-74
2022/08/01 12:50:19;;;;;;;4.22;3.60;;;;;;;;;;5071965;28;20033;-74
2022/08/01 12:52:45;;;;;;;6.00;5.32;;;;;;;;;;5063267;28;20482;-74
2022/08/01 12:55:11;;;;;;;7.95;3.90;;;;;;;;;;5066405;28;20083;-74
2022/08/01 12:57:39;;;;;;;5.53;3.33;;;;;;;;;;5071838;28;20032;-73
2022/08/01 13:00:13;;;;;;;8.25;3.97;;;;;;;;;;5071378;28;20074;-73
2022/08/01 13:02:40;;;;;;;7.38;3.78;;;;;;;;;;5071650;28;20095;-73
2022/08/01 13:05:06;;;;;;;4.25;3.85;;;;;;;;;;5071568;28;20021;-73
2022/08/01 13:07:51;;;;;;;5.30;4.03;;;;;;;;;;5071419;28;20479;-73
2022/08/01 13:10:30;;;;;;;6.15;3.67;;;;;;;;;;5071589;28;20455;-74
2022/08/01 13:12:57;;;;;;;6.45;3.85;;;;;;;;;;5071401;28;20450;-74
2022/08/01 13:15:25;;;;;;;8.07;5.60;;;;;;;;;;5086186;28;20124;-73
2022/08/01 13:17:52;;;;;;;5.10;3.83;;;;;;;;;;5092794;28;20028;-74
2022/08/01 13:20:27;;;;;;;7.43;4.20;;;;;;;;;;5093645;28;20114;-74
2022/08/01 13:22:53;;;;;;;5.32;3.92;;;;;;;;;;5092415;28;20020;-74
2022/08/01 13:25:19;;;;;;;4.50;3.70;;;;;;;;;;5093629;28;20031;-73
2022/08/01 13:27:46;;;;;;;10.57;4.53;;;;;;;;;;5093373;28;20479;-73
2022/08/01 13:30:16;;;;;;;4.72;3.92;;;;;;;;;;5093490;28;20047;-73
2022/08/01 13:32:43;;;;;;;;;;;;;;;;;;5093856;28;20462;-73
2022/08/01 13:35:12;;;;;;;6.57;4.18;;;;;;;;;;5093546;28;19994;-72
2022/08/01 13:37:39;;;;;;;7.05;5.28;;;;;;;;;;5093288;28;20020;-73
2022/08/01 15:43:21;;;;;;;11.10;10.15;;;;;;;;;;5124229;27;20432;-72
2022/08/01 15:45:47;;;;;;;15.35;6.55;;;;;;;;;;5131047;28;20031;-72
2022/08/01 15:48:13;;;;;;;6.78;5.50;;;;;;;;;;5130659;28;20030;-72
2022/08/01 15:50:40;;;;;;;9.20;4.65;;;;;;;;;;5130838;28;20015;-72
2022/08/01 15:53:06;;;;;;;7.15;5.28;;;;;;;;;;5130321;28;20129;-72
2022/08/01 15:55:35;;;;;;;6.20;5.60;;;;;;;;;;5130644;28;20098;-72
2022/08/01 15:58:01;;;;;;;6.03;5.38;;;;;;;;;;5130714;28;20102;-72
2022/08/01 16:19:20;;;;;;;10.25;6.20;;;;;;;;;;5072938;27;20441;-71
2022/08/01 16:21:46;;;;;;;9.25;7.20;;;;;;;;;;5070079;28;20538;-71
2022/08/01 16:24:13;;;;;;;5.47;4.88;;;;;;;;;;5068055;28;20364;-71
2022/08/01 16:26:40;;;;;;;5.25;4.70;;;;;;;;;;5068425;28;20029;-71
2022/08/01 16:50:01;;;;;;;4.75;4.30;;;;;;;;;;5127325;27;20387;-72
2022/08/01 16:52:27;;;;;;;8.45;5.03;;;;;;;;;;5129033;27;20031;-71
2022/08/01 16:54:56;;;;;;;6.10;4.68;;;;;;;;;;5128514;28;20019;-71
2022/08/01 16:57:22;;;;;;;6.57;3.80;;;;;;;;;;5117466;28;20106;-71
2022/08/01 16:59:48;;;;;;;11.60;5.63;;;;;;;;;;5130586;28;20031;-71
2022/08/01 17:02:14;;;;;;;5.88;4.72;;;;;;;;;;5116176;28;20015;-71
2022/08/01 17:04:40;;;;;;;8.63;5.13;;;;;;;;;;5130659;27;20493;-71
2022/08/01 17:07:06;;;;;;;9.60;4.53;;;;;;;;;;5127367;28;20047;-71
2022/08/01 17:09:32;;;;;;;7.85;4.10;;;;;;;;;;5119225;28;20045;-71
2022/08/01 17:11:58;;;;;;;5.63;4.53;;;;;;;;;;5129446;27;20122;-71
2022/08/01 17:14:24;;;;;;;6.32;5.45;;;;;;;;;;5116704;27;20023;-71
2022/08/01 17:16:50;;;;;;;8.48;4.28;;;;;;;;;;5130322;28;20498;-71
2022/08/01 17:36:50;;;;;;;7.03;4.47;;;;;;;;;;5127908;27;20375;-71
2022/08/01 17:39:17;;;;;;;8.63;5.18;;;;;;;;;;5129419;28;20020;-71
2022/08/01 17:41:43;;;;;;;10.50;5.85;;;;;;;;;;5129757;28;20058;-71
2022/08/01 17:44:09;;;;;;;10.88;7.22;;;;;;;;;;5117250;28;20455;-72
2022/08/01 17:46:35;;;;;;;6.88;5.20;;;;;;;;;;5129283;28;20577;-71
2022/08/01 17:49:01;;;;;;;7.13;4.82;;;;;;;;;;5130711;28;20042;-71
2022/08/01 17:51:27;;;;;;;12.65;9.23;;;;;;;;;;5130869;27;20084;-71
2022/08/01 17:53:53;;;;;;;10.63;6.90;;;;;;;;;;5130475;28;20019;-72
2022/08/01 17:56:20;;;;;;;9.68;5.32;;;;;;;;;;5130814;28;20369;-72
2022/08/01 17:58:46;;;;;;;7.28;5.18;;;;;;;;;;5129710;27;20492;-71
2022/08/01 18:01:12;;;;;;;6.00;5.35;;;;;;;;;;5116647;27;20030;-71
2022/08/01 18:03:38;;;;;;;9.52;6.25;;;;;;;;;;5130195;27;20023;-71
2022/08/01 18:06:06;;;;;;;8.45;6.85;;;;;;;;;;5130355;28;20473;-72
2022/08/01 18:08:32;;;;;;;6.93;6.25;;;;;;;;;;5130330;27;20028;-71
2022/08/01 18:10:58;;;;;;;16.33;8.50;;;;;;;;;;5130049;27;20409;-72
2022/08/01 18:13:24;;;;;;;8.73;6.45;;;;;;;;;;5130551;27;20091;-71
2022/08/01 18:15:51;;;;;;;8.15;6.80;;;;;;;;;;5130394;27;20029;-71
2022/08/01 18:18:18;;;;;;;10.18;6.32;;;;;;;;;;5130126;28;20072;-72
2022/08/01 18:20:45;;;;;;;8.95;6.03;;;;;;;;;;5130073;27;20020;-72